Time;durP1;ratioP1;P1;durP2;ratioP2;P2;SDS_P1;SDS_P2;PMS_P1;PMS_P2;Temp;Humidity;BMP_temperature;BMP_pressure;BME280_temperature;BME280_humidity;BME280_pressure;Samples;Min_cycle;Max_cycle;Signal;HPM_P1;HPM_P2
2022/07/28 00:00:21;;;;;;;;;4.67;4.67;;;;;25.12;46.74;98638.72;4876186;28;104031;-93
2022/07/28 00:02:53;;;;;;;;;4.67;4.67;;;;;25.13;46.80;98648.66;4860035;28;102290;-92
2022/07/28 00:05:21;;;;;;;;;5.33;5.00;;;;;25.10;46.72;98650.09;4861700;28;102122;-93
2022/07/28 00:07:49;;;;;;;;;4.33;2.67;;;;;25.11;46.91;98648.16;4870007;28;102159;-93
2022/07/28 00:10:16;;;;;;;;;5.00;4.00;;;;;25.09;46.71;98636.53;4876458;28;102898;-93
2022/07/28 00:12:43;;;;;;;;;6.67;5.33;;;;;25.10;47.09;98649.25;4858680;28;102893;-93
2022/07/28 00:15:11;;;;;;;;;4.00;4.00;;;;;25.09;47.13;98644.84;4890815;28;102785;-93
2022/07/28 00:17:38;;;;;;;;;5.00;5.00;;;;;25.09;46.92;98642.91;4875255;28;104470;-93
2022/07/28 00:20:07;;;;;;;;;5.00;5.00;;;;;25.09;46.97;98647.59;4908182;28;104785;-93
2022/07/28 00:22:34;;;;;;;;;7.00;5.33;;;;;25.10;46.82;98643.72;4878540;28;102282;-93
2022/07/28 00:25:01;;;;;;;;;5.00;5.00;;;;;25.10;46.79;98643.72;4907828;28;102099;-93
2022/07/28 00:27:28;;;;;;;;;3.00;3.00;;;;;25.07;47.04;98636.03;4891227;28;102627;-93
2022/07/28 00:29:55;;;;;;;;;5.33;5.00;;;;;25.07;47.02;98644.31;4872251;28;109958;-93
2022/07/28 00:32:23;;;;;;;;;4.00;4.00;;;;;25.08;47.10;98648.75;4873522;28;102350;-93
2022/07/28 00:34:50;;;;;;;;;7.00;5.00;;;;;25.06;46.91;98643.50;4882677;28;102622;-93
2022/07/28 00:37:19;;;;;;;;;5.00;5.00;;;;;25.04;46.95;98639.34;4876586;28;102223;-93
2022/07/28 00:39:46;;;;;;;;;5.00;4.00;;;;;25.05;46.90;98643.78;4883903;28;104011;-93
2022/07/28 00:42:18;;;;;;;;;5.33;4.33;;;;;25.06;46.96;98650.97;4884530;28;102605;-93
2022/07/28 00:44:45;;;;;;;;;4.00;4.00;;;;;25.04;47.12;98639.34;4881677;28;102683;-93
2022/07/28 00:47:12;;;;;;;;;5.00;3.33;;;;;25.07;47.05;98644.31;4846985;28;102288;-93
2022/07/28 00:49:39;;;;;;;;;4.67;4.67;;;;;25.04;47.04;98640.19;4858572;28;103115;-94
2022/07/28 00:52:07;;;;;;;;;4.33;4.33;;;;;25.07;46.82;98641.56;4875131;28;102146;-93
2022/07/28 00:54:35;;;;;;;;;3.00;3.00;;;;;25.03;46.83;98633.03;4871860;28;102223;-93
2022/07/28 00:57:02;;;;;;;;;5.67;4.67;;;;;25.05;46.87;98630.78;4858840;28;102439;-93
2022/07/28 00:59:29;;;;;;;;;4.67;4.67;;;;;25.05;47.12;98630.78;4880519;28;105813;-93
2022/07/28 01:01:59;;;;;;;;;5.00;5.00;;;;;25.03;47.06;98627.50;4853311;28;103113;-93
2022/07/28 01:04:26;;;;;;;;;5.67;5.00;;;;;25.01;46.99;98623.34;4850083;28;104023;-93
2022/07/28 01:07:19;;;;;;;;;5.00;4.00;;;;;25.03;46.97;98615.59;4838660;28;103344;-93
2022/07/28 01:10:03;;;;;;;;;3.67;3.67;;;;;25.03;46.96;98621.13;4877799;28;110663;-93
2022/07/28 01:12:41;;;;;;;;;4.00;4.00;;;;;25.01;46.89;98618.66;4890802;28;102039;-93
2022/07/28 01:15:32;;;;;;;;;4.00;3.67;;;;;25.02;47.17;98613.94;4894059;28;102621;-93
2022/07/28 01:18:26;;;;;;;;;3.33;3.33;;;;;25.01;46.81;98612.28;4885960;28;102700;-93
2022/07/28 01:21:10;;;;;;;;;3.33;3.33;;;;;24.97;46.88;98616.75;4875913;28;107769;-93
2022/07/28 01:24:05;;;;;;;;;3.33;3.33;;;;;24.99;47.26;98629.16;4890628;28;103413;-93
2022/07/28 01:26:55;;;;;;;;;3.67;3.33;;;;;24.97;47.24;98623.13;4905255;28;102067;-94
2022/07/28 01:29:51;;;;;;;;;3.67;3.67;;;;;24.99;46.98;98625.59;4878930;28;107998;-93
2022/07/28 01:32:20;;;;;;;;;4.00;2.33;;;;;24.98;46.91;98623.94;4908922;28;109651;-93
2022/07/28 01:35:09;;;;;;;;;2.67;2.00;;;;;24.99;47.01;98620.06;4890318;28;102388;-93
2022/07/28 01:37:45;;;;;;;;;3.33;3.33;;;;;24.97;46.98;98622.28;4892263;28;102202;-93
2022/07/28 01:40:17;;;;;;;;;5.00;3.00;;;;;24.95;46.99;98619.81;4870483;28;102221;-92
2022/07/28 01:42:46;;;;;;;;;5.00;5.00;;;;;24.96;46.88;98617.88;4874788;28;104099;-93
2022/07/28 01:45:14;;;;;;;;;4.67;4.00;;;;;24.96;47.08;98623.41;4842041;28;104086;-93
2022/07/28 01:47:44;;;;;;;;;4.00;4.00;;;;;24.93;47.04;98632.31;4875615;28;102806;-93
2022/07/28 01:50:25;;;;;;;;;5.33;4.67;;;;;24.92;47.21;98627.88;4883108;28;102841;-93
2022/07/28 01:52:53;;;;;;;;;3.00;3.00;;;;;24.93;47.04;98626.78;4902749;28;105417;-93
2022/07/28 01:55:21;;;;;;;;;3.00;3.00;;;;;24.96;46.92;98631.69;4908946;28;102700;-93
2022/07/28 01:57:48;;;;;;;;;4.33;4.00;;;;;24.93;46.80;98629.53;4866951;28;105176;-93
2022/07/28 02:00:16;;;;;;;;;4.00;4.00;;;;;24.93;47.07;98629.53;4865567;28;102210;-93
2022/07/28 02:02:45;;;;;;;;;4.00;3.67;;;;;24.93;46.96;98626.78;4876584;28;103837;-93
2022/07/28 02:05:15;;;;;;;;;2.33;2.33;;;;;24.92;47.23;98630.66;4891902;28;108936;-93
2022/07/28 02:07:46;;;;;;;;;3.33;3.33;;;;;24.88;46.87;98631.25;4902412;28;102590;-94
2022/07/28 02:10:14;;;;;;;;;4.67;4.67;;;;;24.92;47.05;98636.19;4881169;28;102530;-93
2022/07/28 02:12:43;;;;;;;;;5.00;5.00;;;;;24.90;47.11;98635.66;4871581;28;104171;-93
2022/07/28 02:15:10;;;;;;;;;3.33;2.67;;;;;24.91;47.10;98627.06;4874999;28;102662;-93
2022/07/28 02:17:40;;;;;;;;;2.67;2.67;;;;;24.90;47.08;98639.25;4844411;28;104645;-93
2022/07/28 02:20:09;;;;;;;;;2.33;2.33;;;;;24.91;47.21;98626.22;4872964;28;102203;-94
2022/07/28 02:22:37;;;;;;;;;1.33;1.33;;;;;24.91;46.99;98637.28;4841156;28;103902;-93
2022/07/28 02:25:10;;;;;;;;;3.00;3.00;;;;;24.87;47.11;98629.59;4871144;28;102567;-93
2022/07/28 02:27:39;;;;;;;;;3.33;3.33;;;;;24.85;47.14;98623.50;4885965;28;106219;-93
2022/07/28 02:30:16;;;;;;;;;5.00;4.00;;;;;24.87;47.13;98629.59;4869566;28;102791;-93
2022/07/28 02:32:56;;;;;;;;;3.00;3.00;;;;;24.88;47.17;98635.94;4882286;28;103796;-93
2022/07/28 02:35:35;;;;;;;;;4.00;4.00;;;;;24.86;47.10;98630.69;4879135;28;104013;-93
2022/07/28 02:38:07;;;;;;;;;3.00;3.00;;;;;24.84;47.41;98646.75;4878624;28;102449;-93
2022/07/28 02:40:35;;;;;;;;;2.33;2.33;;;;;24.84;47.29;98645.91;4807976;28;103807;-94
2022/07/28 02:43:02;;;;;;;;;3.67;3.00;;;;;24.83;47.11;98642.31;4885679;28;104051;-93
2022/07/28 02:45:29;;;;;;;;;3.33;3.00;;;;;24.84;47.28;98643.16;4878075;28;102099;-93
2022/07/28 02:48:04;;;;;;;;;3.67;3.67;;;;;24.83;47.15;98650.63;4840546;28;102400;-93
2022/07/28 02:50:31;;;;;;;;;3.00;3.00;;;;;24.85;47.18;98653.94;4859458;28;102263;-93
2022/07/28 02:53:04;;;;;;;;;4.00;3.33;;;;;24.83;47.13;98653.38;4855974;28;103742;-93
2022/07/28 02:55:42;;;;;;;;;4.00;4.00;;;;;24.83;47.15;98655.31;4868849;28;102049;-92
2022/07/28 02:58:09;;;;;;;;;4.00;4.00;;;;;24.83;46.86;98664.47;4855128;28;102230;-93
2022/07/28 03:00:36;;;;;;;;;4.00;4.00;;;;;24.84;47.20;98663.34;4859585;28;102564;-93
2022/07/28 03:03:04;;;;;;;;;3.00;3.00;;;;;24.84;47.12;98679.94;4850575;28;102879;-93
2022/07/28 03:05:31;;;;;;;;;4.00;4.00;;;;;24.84;47.21;98665.28;4882429;28;104297;-93
2022/07/28 03:07:58;;;;;;;;;4.00;3.33;;;;;24.81;47.38;98677.75;4859371;28;103185;-93
2022/07/28 03:10:26;;;;;;;;;2.33;2.33;;;;;24.82;47.40;98681.34;4859451;28;102461;-93
2022/07/28 03:13:00;;;;;;;;;4.33;3.67;;;;;24.83;47.07;98678.28;4823472;28;109460;-93
2022/07/28 03:15:27;;;;;;;;;2.67;2.00;;;;;24.81;47.25;98686.03;4850926;28;102240;-93
2022/07/28 03:17:55;;;;;;;;;4.00;3.33;;;;;24.80;46.94;98683.59;4872712;28;102438;-93
2022/07/28 03:20:22;;;;;;;;;3.00;3.00;;;;;24.80;47.22;98687.19;4853809;28;102368;-93
2022/07/28 03:22:49;;;;;;;;;4.00;4.00;;;;;24.79;47.09;98687.47;4838228;28;104881;-93
2022/07/28 03:25:49;;;;;;;;;3.00;2.33;;;;;24.80;47.14;98694.66;4843073;28;103663;-93
2022/07/28 03:28:18;;;;;;;;;4.00;4.00;;;;;24.79;46.99;98691.06;4844543;28;102169;-93
2022/07/28 03:30:55;;;;;;;;;3.33;3.00;;;;;24.79;47.15;98701.28;4831932;28;102717;-93
2022/07/28 03:33:22;;;;;;;;;3.67;3.67;;;;;24.78;47.33;98708.75;4852240;28;103024;-93
2022/07/28 03:35:50;;;;;;;;;3.00;3.00;;;;;24.79;47.38;98710.41;4821049;28;102641;-93
2022/07/28 03:38:22;;;;;;;;;2.00;2.00;;;;;24.79;47.42;98710.41;4855657;28;103077;-93
2022/07/28 03:40:49;;;;;;;;;2.33;2.33;;;;;24.78;46.98;98707.94;4868924;28;102489;-93
2022/07/28 03:43:24;;;;;;;;;3.00;3.00;;;;;24.76;47.35;98711.00;4840497;28;103309;-93
2022/07/28 03:45:51;;;;;;;;;3.00;3.00;;;;;24.79;47.08;98715.13;4839311;28;102682;-93
2022/07/28 03:48:22;;;;;;;;;4.67;3.00;;;;;24.77;47.01;98714.56;4853061;28;102264;-93
2022/07/28 03:50:49;;;;;;;;;4.00;3.00;;;;;24.76;47.38;98710.19;4877666;28;102239;-93
2022/07/28 03:53:20;;;;;;;;;3.00;3.00;;;;;24.78;47.27;98713.47;4850050;28;103248;-93
2022/07/28 03:55:49;;;;;;;;;3.67;3.00;;;;;24.74;47.09;98713.22;4866455;28;102212;-93
2022/07/28 03:58:21;;;;;;;;;3.00;2.00;;;;;24.78;47.15;98719.00;4852974;28;102289;-93
2022/07/28 04:00:55;;;;;;;;;3.00;3.00;;;;;24.75;47.28;98725.94;4882609;28;104438;-93
2022/07/28 04:03:22;;;;;;;;;3.00;3.00;;;;;24.77;47.20;98728.41;4855141;28;104935;-93
2022/07/28 04:06:09;;;;;;;;;3.67;2.67;;;;;24.73;47.14;98730.94;4867680;28;104609;-93
2022/07/28 04:08:36;;;;;;;;;2.00;2.00;;;;;24.73;47.36;98725.41;4857624;28;102574;-93
2022/07/28 04:11:04;;;;;;;;;3.00;3.00;;;;;24.74;47.35;98728.97;4872338;28;102124;-94
2022/07/28 04:13:31;;;;;;;;;2.33;2.33;;;;;24.75;47.16;98730.66;4858862;28;108978;-93
2022/07/28 04:15:59;;;;;;;;;3.00;3.00;;;;;24.74;47.13;98732.59;4835533;28;104482;-93
2022/07/28 04:18:26;;;;;;;;;2.33;2.33;;;;;24.73;47.33;98736.47;4828687;28;102106;-93
2022/07/28 04:20:54;;;;;;;;;2.00;2.00;;;;;24.70;47.30;98737.03;4872352;28;103231;-93
2022/07/28 04:23:22;;;;;;;;;3.00;3.00;;;;;24.74;47.20;98753.88;4855677;28;105358;-93
2022/07/28 04:25:49;;;;;;;;;3.33;3.00;;;;;24.74;46.57;98740.03;4856540;28;102304;-93
2022/07/28 04:28:16;;;;;;;;;2.00;2.00;;;;;24.71;47.06;98738.69;4856997;28;102622;-93
2022/07/28 04:30:52;;;;;;;;;3.67;3.00;;;;;24.72;47.24;98743.09;4854074;28;103818;-93
2022/07/28 04:33:20;;;;;;;;;3.00;3.00;;;;;24.73;46.98;98735.63;4867406;28;104341;-93
2022/07/28 04:36:05;;;;;;;;;3.00;2.67;;;;;24.75;47.25;98738.94;4870703;28;102207;-93
2022/07/28 04:38:33;;;;;;;;;3.00;3.00;;;;;24.74;47.01;98732.59;4899669;28;102408;-93
2022/07/28 04:41:00;;;;;;;;;3.00;3.00;;;;;24.73;46.99;98733.69;4889860;28;102282;-93
2022/07/28 04:43:27;;;;;;;;;2.00;2.00;;;;;24.71;46.79;98729.56;4913186;28;104423;-93
2022/07/28 04:45:54;;;;;;;;;3.00;2.33;;;;;24.72;47.02;98732.03;4895813;28;102169;-93
2022/07/28 04:48:24;;;;;;;;;3.67;3.00;;;;;24.72;47.35;98731.22;4895465;28;102681;-93
2022/07/28 04:50:51;;;;;;;;;2.00;2.00;;;;;24.71;47.06;98729.56;4895936;28;102462;-93
2022/07/28 04:53:19;;;;;;;;;2.00;1.00;;;;;24.69;46.85;98727.09;4896284;28;104093;-93
2022/07/28 04:55:46;;;;;;;;;2.33;2.33;;;;;24.71;46.87;98740.63;4893858;28;102268;-93
2022/07/28 04:58:17;;;;;;;;;3.00;3.00;;;;;24.71;47.17;98727.63;4896092;28;102238;-93
2022/07/28 05:00:45;;;;;;;;;2.33;2.33;;;;;24.72;46.95;98734.00;4908531;28;104936;-93
2022/07/28 05:03:15;;;;;;;;;3.00;3.00;;;;;24.70;46.84;98737.03;4899785;28;104175;-93
2022/07/28 05:05:42;;;;;;;;;2.67;2.67;;;;;24.74;46.79;98734.50;4890148;28;102248;-93
2022/07/28 05:08:14;;;;;;;;;2.00;2.00;;;;;24.72;46.91;98740.31;4893450;28;102170;-93
2022/07/28 05:10:41;;;;;;;;;2.00;2.00;;;;;24.71;46.70;98735.94;4910506;28;102423;-93
2022/07/28 05:13:09;;;;;;;;;3.00;3.00;;;;;24.74;46.63;98751.94;4915512;28;105074;-93
2022/07/28 05:15:36;;;;;;;;;3.00;2.00;;;;;24.75;46.53;98742.53;4882253;28;102700;-93
2022/07/28 05:18:04;;;;;;;;;2.67;2.33;;;;;24.73;46.34;98741.16;4898154;28;102234;-93
2022/07/28 05:20:32;;;;;;;;;1.00;1.00;;;;;24.73;46.56;98753.06;4832846;28;102433;-92
2022/07/28 05:22:59;;;;;;;;;3.67;2.33;;;;;24.73;46.80;98750.28;4908871;28;103480;-93
2022/07/28 05:25:26;;;;;;;;;3.00;3.00;;;;;24.73;46.79;98755.81;4883420;28;102479;-93
2022/07/28 05:27:54;;;;;;;;;2.00;2.00;;;;;24.75;46.44;98761.91;4896469;28;102267;-93
2022/07/28 05:30:21;;;;;;;;;2.00;2.00;;;;;24.76;46.67;98755.25;4895700;28;102282;-93
2022/07/28 05:32:49;;;;;;;;;2.00;2.00;;;;;24.76;46.72;98757.19;4892761;28;104041;-92
2022/07/28 05:35:16;;;;;;;;;2.67;2.00;;;;;24.74;46.37;98751.09;4913765;28;102583;-93
2022/07/28 05:37:43;;;;;;;;;2.00;2.00;;;;;24.74;46.48;98746.41;4893644;28;102254;-94
2022/07/28 05:40:15;;;;;;;;;2.00;2.00;;;;;24.75;46.53;98745.31;4893639;28;102236;-92
2022/07/28 05:42:42;;;;;;;;;2.33;2.33;;;;;24.77;46.75;98759.66;4889128;28;104052;-93
2022/07/28 05:45:09;;;;;;;;;2.00;2.00;;;;;24.78;46.38;98752.19;4905051;28;102486;-93
2022/07/28 05:47:46;;;;;;;;;2.00;2.00;;;;;24.77;46.11;98765.19;4890374;28;102218;-93
2022/07/28 05:50:18;;;;;;;;;3.00;3.00;;;;;24.77;46.35;98756.06;4877003;28;102207;-93
2022/07/28 05:52:46;;;;;;;;;1.33;1.33;;;;;24.79;46.40;98770.44;4892364;28;104478;-93
2022/07/28 05:55:13;;;;;;;;;3.00;2.00;;;;;24.77;46.11;98767.13;4893494;28;102508;-93
2022/07/28 05:57:40;;;;;;;;;3.00;2.00;;;;;24.77;46.27;98770.72;4878002;28;102060;-93
2022/07/28 06:00:14;;;;;;;;;2.00;2.00;;;;;24.79;46.45;98779.56;4870932;28;102155;-93
2022/07/28 06:02:48;;;;;;;;;1.67;1.67;;;;;24.75;46.31;98770.19;4869372;28;104051;-93
2022/07/28 06:05:19;;;;;;;;;1.33;1.33;;;;;24.79;46.37;98781.50;4882146;28;102476;-93
2022/07/28 06:07:47;;;;;;;;;3.00;3.00;;;;;24.78;46.63;98779.84;4870273;28;103552;-93
2022/07/28 06:10:18;;;;;;;;;1.33;1.33;;;;;24.79;46.45;98787.03;4865384;28;102481;-93
2022/07/28 06:12:48;;;;;;;;;3.00;3.00;;;;;24.77;46.26;98784.53;4873226;28;103585;-93
2022/07/28 06:15:21;;;;;;;;;2.00;2.00;;;;;24.80;46.32;98797.00;4890570;28;102382;-93
2022/07/28 06:18:07;;;;;;;;;2.00;2.00;;;;;24.78;46.19;98797.25;4890241;28;102511;-93
2022/07/28 06:20:36;;;;;;;;;3.00;2.33;;;;;24.77;46.41;98795.59;4866510;28;102307;-93
2022/07/28 06:23:05;;;;;;;;;3.00;3.00;;;;;24.79;46.45;98790.63;4863535;28;108828;-93
2022/07/28 06:25:32;;;;;;;;;2.00;2.00;;;;;24.77;46.28;98794.78;4854827;28;102116;-93
2022/07/28 06:28:01;;;;;;;;;2.67;2.33;;;;;24.78;46.50;98791.72;4862026;28;103735;-93
2022/07/28 06:30:38;;;;;;;;;2.33;2.33;;;;;24.77;46.52;98790.06;4874467;28;104108;-93
2022/07/28 06:33:06;;;;;;;;;2.67;2.67;;;;;24.78;46.52;98797.25;4872874;28;108982;-93
2022/07/28 06:35:33;;;;;;;;;2.00;1.67;;;;;24.77;46.50;98784.53;4890586;28;102607;-93
2022/07/28 06:38:13;;;;;;;;;2.33;2.00;;;;;24.77;46.31;98795.59;4862479;28;105233;-93
2022/07/28 06:40:42;;;;;;;;;1.00;1.00;;;;;24.79;46.12;98803.63;4844085;28;102245;-93
2022/07/28 06:43:09;;;;;;;;;1.00;1.00;;;;;24.76;46.14;98799.50;4812898;28;105427;-92
2022/07/28 06:45:36;;;;;;;;;2.00;2.00;;;;;24.78;46.23;98800.03;4874695;28;102585;-93
2022/07/28 06:48:03;;;;;;;;;1.00;1.00;;;;;24.77;46.43;98794.78;4861927;28;104989;-93
2022/07/28 06:50:30;;;;;;;;;2.33;2.33;;;;;24.77;46.08;98792.00;4855877;28;102756;-93
2022/07/28 06:52:57;;;;;;;;;2.00;2.00;;;;;24.76;46.15;98790.38;4865248;28;104035;-93
2022/07/28 06:55:25;;;;;;;;;3.00;3.00;;;;;24.80;46.41;98800.59;4869757;28;102336;-92
2022/07/28 06:58:04;;;;;;;;;1.67;1.67;;;;;24.81;46.27;98782.84;4869516;28;103193;-93
2022/07/28 07:00:31;;;;;;;;;1.00;1.00;;;;;24.84;46.16;98787.00;4851197;28;102295;-93
2022/07/28 07:02:59;;;;;;;;;1.33;1.33;;;;;24.86;46.11;98782.00;4862749;28;104200;-93
2022/07/28 07:05:30;;;;;;;;;2.00;2.00;;;;;24.88;46.43;98791.69;4859549;28;102522;-93
2022/07/28 07:07:58;;;;;;;;;2.00;2.00;;;;;24.83;46.33;98777.88;4872825;28;103305;-93
2022/07/28 07:10:26;;;;;;;;;1.33;1.33;;;;;24.85;46.32;98781.19;4853198;28;102166;-92
2022/07/28 07:12:53;;;;;;;;;1.33;1.33;;;;;24.87;46.39;98784.50;4872416;28;104041;-93
2022/07/28 07:15:20;;;;;;;;;0.33;0.33;;;;;24.84;46.31;98778.69;4869304;28;102608;-93
2022/07/28 07:17:47;;;;;;;;;1.67;1.33;;;;;24.87;46.38;98781.72;4875970;28;102590;-93
2022/07/28 07:20:15;;;;;;;;;2.00;2.00;;;;;24.84;46.26;98776.75;4871187;28;102126;-93
2022/07/28 07:22:44;;;;;;;;;1.00;1.00;;;;;24.85;46.21;98770.13;4862090;28;110360;-92
2022/07/28 07:25:13;;;;;;;;;2.00;1.00;;;;;24.85;46.00;98775.66;4862173;28;102452;-94
2022/07/28 07:27:40;;;;;;;;;2.00;2.00;;;;;24.87;46.29;98776.19;4852301;28;102170;-94
2022/07/28 07:30:07;;;;;;;;;2.00;1.33;;;;;24.87;46.18;98770.66;4876307;28;102600;-93
2022/07/28 07:32:35;;;;;;;;;1.67;1.67;;;;;24.85;46.38;98770.13;4859710;28;108963;-93
2022/07/28 07:35:02;;;;;;;;;1.00;1.00;;;;;24.86;46.11;98768.19;4857221;28;102231;-93
2022/07/28 07:37:31;;;;;;;;;1.67;1.67;;;;;24.88;46.35;98780.63;4864747;28;102581;-93
2022/07/28 07:40:01;;;;;;;;;1.67;1.67;;;;;24.88;46.20;98765.97;4873735;28;102638;-93
2022/07/28 07:42:28;;;;;;;;;1.33;1.33;;;;;24.87;46.15;98761.53;4862860;28;103979;-93
2022/07/28 07:45:09;;;;;;;;;2.00;1.00;;;;;24.86;45.97;98757.94;4845448;28;102729;-94
2022/07/28 07:47:36;;;;;;;;;1.00;1.00;;;;;24.91;46.16;98772.84;4875238;28;102320;-92
2022/07/28 07:50:11;;;;;;;;;1.00;1.00;;;;;24.90;46.22;98768.44;4861070;28;102228;-93
2022/07/28 07:52:38;;;;;;;;;3.00;3.00;;;;;24.88;46.19;98761.25;4865036;28;108134;-93
2022/07/28 07:55:05;;;;;;;;;1.00;1.00;;;;;24.88;46.13;98752.97;4884367;28;102533;-93
2022/07/28 07:57:36;;;;;;;;;1.33;1.00;;;;;24.88;45.92;98754.91;4845902;28;102203;-93
2022/07/28 08:00:04;;;;;;;;;1.00;1.00;;;;;24.88;46.17;98766.78;4869250;28;102290;-93
2022/07/28 08:02:31;;;;;;;;;1.00;1.00;;;;;24.90;46.04;98769.28;4863126;28;102979;-93
2022/07/28 08:04:59;;;;;;;;;1.33;1.33;;;;;24.86;46.13;98771.78;4852631;28;102047;-93
2022/07/28 08:07:26;;;;;;;;;1.50;1.50;;;;;24.88;46.06;98772.31;4869707;28;102701;-93
2022/07/28 08:09:53;;;;;;;;;1.00;1.00;;;;;24.90;46.08;98772.03;4870588;28;102536;-93
2022/07/28 08:12:20;;;;;;;;;2.00;1.67;;;;;24.92;46.07;98785.56;4850654;28;102025;-93
2022/07/28 08:14:52;;;;;;;;;1.00;1.00;;;;;24.92;46.33;98786.41;4852527;28;102458;-93
2022/07/28 08:17:20;;;;;;;;;1.33;1.33;;;;;24.93;45.92;98781.69;4872655;28;102332;-92
2022/07/28 08:19:51;;;;;;;;;2.00;2.00;;;;;24.94;46.17;98783.34;4852155;28;102656;-93
2022/07/28 08:22:18;;;;;;;;;2.00;2.00;;;;;24.93;45.96;98779.75;4877703;28;104377;-93
2022/07/28 08:24:45;;;;;;;;;3.00;2.00;;;;;24.95;45.99;98777.50;4841022;28;102661;-93
2022/07/28 08:27:12;;;;;;;;;2.00;1.67;;;;;24.94;46.02;98781.41;4846520;28;102563;-93
2022/07/28 08:29:39;;;;;;;;;1.00;1.00;;;;;24.95;46.14;98790.53;4874671;28;104238;-94
2022/07/28 08:32:06;;;;;;;;;2.00;2.00;;;;;24.94;45.83;98783.34;4852403;28;104101;-93
2022/07/28 08:34:36;;;;;;;;;1.00;1.00;;;;;24.97;46.14;98777.22;4849687;28;102896;-93
2022/07/28 08:37:04;;;;;;;;;1.00;1.00;;;;;24.93;46.00;98771.44;4855834;28;102572;-93
2022/07/28 08:39:32;;;;;;;;;1.00;1.00;;;;;24.97;46.04;98777.22;4889555;28;102271;-93
2022/07/28 08:42:14;;;;;;;;;1.00;1.00;;;;;24.96;46.32;98775.56;4901601;28;103705;-93
2022/07/28 08:44:51;;;;;;;;;2.67;1.67;;;;;24.95;45.91;98768.41;4838866;28;102248;-93
2022/07/28 08:47:19;;;;;;;;;1.00;1.00;;;;;24.96;45.91;98778.34;4870252;28;102487;-92
2022/07/28 08:49:47;;;;;;;;;1.00;1.00;;;;;24.96;45.91;98772.81;4865593;28;102187;-93
2022/07/28 08:52:14;;;;;;;;;1.00;1.00;;;;;24.96;46.10;98772.81;4833724;28;103560;-93
2022/07/28 08:54:45;;;;;;;;;1.00;1.00;;;;;24.95;45.68;98760.91;4863286;28;102627;-93
2022/07/28 08:57:19;;;;;;;;;1.00;1.00;;;;;24.96;45.97;98758.97;4843583;28;102245;-93
2022/07/28 08:59:55;;;;;;;;;1.00;1.00;;;;;25.00;46.19;98758.09;4827807;28;103108;-92
2022/07/28 09:02:27;;;;;;;;;1.67;1.67;;;;;25.00;45.76;98757.25;4873895;28;108390;-93
2022/07/28 09:04:55;;;;;;;;;1.00;1.00;;;;;24.99;46.02;98748.13;4856824;28;102268;-93
2022/07/28 09:07:22;;;;;;;;;1.67;1.00;;;;;25.01;45.93;98757.00;4890142;28;103338;-93
2022/07/28 09:09:49;;;;;;;;;1.00;1.00;;;;;25.01;45.81;98751.44;4898828;28;103308;-93
2022/07/28 09:12:22;;;;;;;;;1.00;1.00;;;;;25.02;45.88;98752.28;4874513;28;108632;-93
2022/07/28 09:14:53;;;;;;;;;1.00;1.00;;;;;25.00;45.95;98743.44;4891746;28;102107;-93
2022/07/28 09:17:20;;;;;;;;;1.67;1.00;;;;;25.03;46.25;98753.94;4881761;28;102270;-93
2022/07/28 09:19:47;;;;;;;;;2.00;1.00;;;;;25.00;45.84;98743.44;4887768;28;102332;-93
2022/07/28 09:22:14;;;;;;;;;1.00;1.00;;;;;25.01;45.83;98745.09;4853438;28;105025;-93
2022/07/28 09:24:43;;;;;;;;;0.33;0.00;;;;;25.02;45.77;98735.69;4880243;28;102826;-93
2022/07/28 09:27:12;;;;;;;;;1.00;0.00;;;;;25.01;46.08;98732.09;4858328;28;102688;-93
2022/07/28 09:29:40;;;;;;;;;1.00;1.00;;;;;25.02;45.97;98741.22;4877004;28;102468;-93
2022/07/28 09:32:07;;;;;;;;;1.00;1.00;;;;;25.06;45.93;98742.28;4854532;28;104192;-93
2022/07/28 09:34:47;;;;;;;;;1.00;1.00;;;;;25.04;46.01;98742.56;4893512;28;102632;-93
2022/07/28 09:37:22;;;;;;;;;0.33;0.33;;;;;25.05;45.95;98737.84;4897766;28;102491;-93
2022/07/28 09:39:57;;;;;;;;;0.33;0.33;;;;;25.05;46.02;98740.63;4897649;28;102659;-93
2022/07/28 09:42:25;;;;;;;;;1.00;1.00;;;;;25.07;45.91;98744.75;4905842;28;109237;-93
2022/07/28 09:45:06;;;;;;;;;0.67;0.67;;;;;25.07;45.88;98735.63;4900190;28;102437;-93
2022/07/28 09:48:10;;;;;;;;;0.67;0.00;;;;;25.08;45.95;98746.38;4826744;28;102239;-93
2022/07/28 09:50:41;;;;;;;;;1.00;1.00;;;;;25.10;45.92;98741.41;4887484;28;102760;-94
2022/07/28 09:53:26;;;;;;;;;1.00;1.00;;;;;25.07;45.88;98730.94;4892266;28;103367;-93
2022/07/28 09:55:58;;;;;;;;;0.67;0.67;;;;;25.11;45.78;98733.94;4911292;28;104774;-93
2022/07/28 09:58:26;;;;;;;;;1.00;1.00;;;;;25.09;45.93;98738.91;4820319;28;102485;-93
2022/07/28 10:01:11;;;;;;;;;1.00;1.00;;;;;25.08;45.90;98737.28;4875571;28;102209;-93
2022/07/28 10:03:39;;;;;;;;;0.33;0.33;;;;;25.12;45.64;98741.94;4895559;28;108027;-93
2022/07/28 10:06:10;;;;;;;;;1.00;0.67;;;;;25.12;45.87;98739.19;4892731;28;102327;-93
2022/07/28 10:08:45;;;;;;;;;1.00;1.00;;;;;25.10;45.96;98738.63;4871706;28;102086;-93
2022/07/28 10:11:14;;;;;;;;;1.00;1.00;;;;;25.12;45.95;98735.59;4877628;28;102557;-93
2022/07/28 10:14:04;;;;;;;;;0.00;0.00;;;;;25.14;45.68;98734.16;4871985;28;104237;-93
2022/07/28 10:16:32;;;;;;;;;1.00;1.00;;;;;25.16;45.64;98722.81;4885926;28;102963;-92
2022/07/28 10:19:00;;;;;;;;;0.33;0.33;;;;;25.16;45.90;98731.13;4891858;28;102696;-93
2022/07/28 10:21:29;;;;;;;;;0.67;0.67;;;;;25.16;45.75;98726.41;4852417;28;102550;-93
2022/07/28 10:24:01;;;;;;;;;1.00;1.00;;;;;25.18;45.65;98720.56;4861522;28;102977;-93
2022/07/28 10:26:30;;;;;;;;;1.33;1.00;;;;;25.18;45.88;98713.09;4887946;28;102739;-93
2022/07/28 10:28:59;;;;;;;;;1.00;1.00;;;;;25.19;45.55;98714.75;4855731;28;102498;-93
2022/07/28 10:31:31;;;;;;;;;1.00;1.00;;;;;25.20;45.49;98718.34;4844697;28;102427;-93
2022/07/28 10:33:59;;;;;;;;;0.67;0.33;;;;;25.19;45.59;98711.97;4896001;28;104225;-93
2022/07/28 10:36:26;;;;;;;;;1.33;1.33;;;;;25.19;45.75;98716.69;4876906;28;102490;-93
2022/07/28 10:38:58;;;;;;;;;0.33;0.33;;;;;25.24;45.59;98713.88;4893587;28;102571;-93
2022/07/28 10:41:26;;;;;;;;;1.33;1.00;;;;;25.21;45.29;98717.22;4887478;28;102634;-94
2022/07/28 10:43:55;;;;;;;;;1.00;1.00;;;;;25.23;45.31;98712.22;4876142;28;102960;-94
2022/07/28 10:46:23;;;;;;;;;0.33;0.33;;;;;25.23;45.55;98713.03;4865907;28;102712;-93
2022/07/28 10:48:50;;;;;;;;;1.33;0.33;;;;;25.23;45.58;98703.91;4867889;28;103458;-93
2022/07/28 10:51:20;;;;;;;;;1.00;1.00;;;;;25.25;45.60;98698.91;4873501;28;102299;-93
2022/07/28 10:53:51;;;;;;;;;1.00;1.00;;;;;25.28;45.43;98701.91;4876508;28;104058;-93
2022/07/28 10:56:50;;;;;;;;;1.00;1.00;;;;;25.28;45.71;98703.84;4874174;28;102755;-93
2022/07/28 10:59:20;;;;;;;;;0.00;0.00;;;;;25.30;45.46;98707.16;4835304;28;102452;-93
2022/07/28 11:01:54;;;;;;;;;0.00;0.00;;;;;25.31;45.37;98694.94;4908387;28;102219;-92
2022/07/28 11:04:40;;;;;;;;;1.00;1.00;;;;;25.33;45.39;98698.25;4867996;28;108461;-92
2022/07/28 11:07:13;;;;;;;;;1.00;1.00;;;;;25.32;45.62;98700.19;4888926;28;102382;-93
2022/07/28 11:09:41;;;;;;;;;0.67;0.67;;;;;25.31;45.53;98692.19;4895258;28;104741;-94
2022/07/28 11:12:14;;;;;;;;;1.00;1.00;;;;;25.31;45.60;98695.78;4899413;28;102861;-93
2022/07/28 11:14:41;;;;;;;;;0.00;0.00;;;;;25.32;45.54;98699.38;4902080;28;104995;-93
2022/07/28 11:17:10;;;;;;;;;1.00;0.33;;;;;25.35;45.40;98701.56;4877476;28;102319;-93
2022/07/28 11:19:43;;;;;;;;;0.67;0.67;;;;;25.36;45.47;98692.13;4890111;28;102382;-92
2022/07/28 11:22:32;;;;;;;;;1.00;1.00;;;;;25.35;45.44;98687.72;4893320;28;103099;-93
2022/07/28 11:25:00;;;;;;;;;0.67;0.67;;;;;25.37;45.52;98699.31;4875111;28;104109;-92
2022/07/28 11:27:50;;;;;;;;;1.00;1.00;;;;;25.37;45.51;98699.31;4892389;28;102612;-93
2022/07/28 11:30:18;;;;;;;;;0.33;0.33;;;;;25.37;45.31;98696.53;4888532;28;102187;-93
2022/07/28 11:32:48;;;;;;;;;1.00;0.00;;;;;25.38;45.55;98687.13;4910134;28;102380;-93
2022/07/28 11:35:22;;;;;;;;;1.00;1.00;;;;;25.38;45.35;98689.06;4907538;28;102830;-92
2022/07/28 11:38:05;;;;;;;;;0.00;0.00;;;;;25.40;45.31;98684.06;4869354;28;102841;-93
2022/07/28 11:40:45;;;;;;;;;0.33;0.33;;;;;25.39;45.17;98690.72;4890752;28;102500;-93